sensor_id;sensor_type;location;lat;lon;timestamp;P1;P2;P0
76679;PMS5003;65597;51.520;-0.224;2023-04-28T00:00:00;14;14;
76679;PMS5003;65597;51.520;-0.224;2023-04-28T00:02:25;16;16;
76679;PMS5003;65597;51.520;-0.224;2023-04-28T00:04:50;14;14;
76679;PMS5003;65597;51.520;-0.224;2023-04-28T00:07:18;14;14;
76679;PMS5003;65597;51.520;-0.224;2023-04-28T00:09:41;15;14;
76679;PMS5003;65597;51.520;-0.224;2023-04-28T00:12:06;13;13;
76679;PMS5003;65597;51.520;-0.224;2023-04-28T00:14:32;14;14;
76679;PMS5003;65597;51.520;-0.224;2023-04-28T00:16:57;15;13;
76679;PMS5003;65597;51.520;-0.224;2023-04-28T00:19:22;22;17;
76679;PMS5003;65597;51.520;-0.224;2023-04-28T00:21:48;13;13;
76679;PMS5003;65597;51.520;-0.224;2023-04-28T00:24:13;16;15;
76679;PMS5003;65597;51.520;-0.224;2023-04-28T00:26:38;18;14;
76679;PMS5003;65597;51.520;-0.224;2023-04-28T00:29:04;13;13;
76679;PMS5003;65597;51.520;-0.224;2023-04-28T00:31:32;15;14;
76679;PMS5003;65597;51.520;-0.224;2023-04-28T00:33:55;14;13;
76679;PMS5003;65597;51.520;-0.224;2023-04-28T00:36:20;12;12;
76679;PMS5003;65597;51.520;-0.224;2023-04-28T00:38:45;13;12;
76679;PMS5003;65597;51.520;-0.224;2023-04-28T00:41:11;15;13;
76679;PMS5003;65597;51.520;-0.224;2023-04-28T00:43:44;14;14;
76679;PMS5003;65597;51.520;-0.224;2023-04-28T00:46:01;13;12;
76679;PMS5003;65597;51.520;-0.224;2023-04-28T00:48:27;14;14;
76679;PMS5003;65597;51.520;-0.224;2023-04-28T00:50:53;17;15;
76679;PMS5003;65597;51.520;-0.224;2023-04-28T00:53:18;14;14;
76679;PMS5003;65597;51.520;-0.224;2023-04-28T00:55:43;15;15;
76679;PMS5003;65597;51.520;-0.224;2023-04-28T00:58:09;14;13;
76679;PMS5003;65597;51.520;-0.224;2023-04-28T01:00:34;11;11;
76679;PMS5003;65597;51.520;-0.224;2023-04-28T01:02:59;13;13;
76679;PMS5003;65597;51.520;-0.224;2023-04-28T01:05:25;16;16;
76679;PMS5003;65597;51.520;-0.224;2023-04-28T01:07:52;13;13;
76679;PMS5003;65597;51.520;-0.224;2023-04-28T01:10:15;14;14;
76679;PMS5003;65597;51.520;-0.224;2023-04-28T01:12:40;14;13;
76679;PMS5003;65597;51.520;-0.224;2023-04-28T01:15:14;14;12;
76679;PMS5003;65597;51.520;-0.224;2023-04-28T01:17:31;11;11;
76679;PMS5003;65597;51.520;-0.224;2023-04-28T01:19:57;14;14;
76679;PMS5003;65597;51.520;-0.224;2023-04-28T01:22:22;14;14;
76679;PMS5003;65597;51.520;-0.224;2023-04-28T01:24:47;14;12;
76679;PMS5003;65597;51.520;-0.224;2023-04-28T01:27:12;12;12;
76679;PMS5003;65597;51.520;-0.224;2023-04-28T01:29:37;12;11;
76679;PMS5003;65597;51.520;-0.224;2023-04-28T01:32:04;12;12;
76679;PMS5003;65597;51.520;-0.224;2023-04-28T01:34:28;11;11;
76679;PMS5003;65597;51.520;-0.224;2023-04-28T01:36:54;12;11;
76679;PMS5003;65597;51.520;-0.224;2023-04-28T01:39:19;10;10;
76679;PMS5003;65597;51.520;-0.224;2023-04-28T01:41:45;14;13;
76679;PMS5003;65597;51.520;-0.224;2023-04-28T01:44:10;12;11;
76679;PMS5003;65597;51.520;-0.224;2023-04-28T01:46:35;9;9;
76679;PMS5003;65597;51.520;-0.224;2023-04-28T01:49:01;8;8;
76679;PMS5003;65597;51.520;-0.224;2023-04-28T01:51:26;8;8;
76679;PMS5003;65597;51.520;-0.224;2023-04-28T01:53:52;10;10;
76679;PMS5003;65597;51.520;-0.224;2023-04-28T01:56:18;10;10;
76679;PMS5003;65597;51.520;-0.224;2023-04-28T01:58:43;12;11;
76679;PMS5003;65597;51.520;-0.224;2023-04-28T02:01:08;11;11;
76679;PMS5003;65597;51.520;-0.224;2023-04-28T02:03:33;9;9;
76679;PMS5003;65597;51.520;-0.224;2023-04-28T02:05:59;10;10;
76679;PMS5003;65597;51.520;-0.224;2023-04-28T02:08:27;11;11;
76679;PMS5003;65597;51.520;-0.224;2023-04-28T02:10:50;9;9;
76679;PMS5003;65597;51.520;-0.224;2023-04-28T02:13:15;12;12;
76679;PMS5003;65597;51.520;-0.224;2023-04-28T02:15:41;11;11;
76679;PMS5003;65597;51.520;-0.224;2023-04-28T02:18:06;12;11;
76679;PMS5003;65597;51.520;-0.224;2023-04-28T02:20:31;14;13;
76679;PMS5003;65597;51.520;-0.224;2023-04-28T02:22:56;15;12;
76679;PMS5003;65597;51.520;-0.224;2023-04-28T02:25:22;10;10;
76679;PMS5003;65597;51.520;-0.224;2023-04-28T02:27:47;11;11;
76679;PMS5003;65597;51.520;-0.224;2023-04-28T02:30:13;13;13;
76679;PMS5003;65597;51.520;-0.224;2023-04-28T02:32:38;13;13;
76679;PMS5003;65597;51.520;-0.224;2023-04-28T02:35:04;14;14;
76679;PMS5003;65597;51.520;-0.224;2023-04-28T02:37:29;15;15;
76679;PMS5003;65597;51.520;-0.224;2023-04-28T02:39:54;15;15;
76679;PMS5003;65597;51.520;-0.224;2023-04-28T02:42:19;15;15;
76679;PMS5003;65597;51.520;-0.224;2023-04-28T02:44:45;14;14;
76679;PMS5003;65597;51.520;-0.224;2023-04-28T02:47:10;12;12;
76679;PMS5003;65597;51.520;-0.224;2023-04-28T02:49:35;17;14;
76679;PMS5003;65597;51.520;-0.224;2023-04-28T02:52:01;14;14;
76679;PMS5003;65597;51.520;-0.224;2023-04-28T02:54:26;14;14;
76679;PMS5003;65597;51.520;-0.224;2023-04-28T02:56:51;21;16;
76679;PMS5003;65597;51.520;-0.224;2023-04-28T02:59:17;12;12;
76679;PMS5003;65597;51.520;-0.224;2023-04-28T03:01:42;13;13;
76679;PMS5003;65597;51.520;-0.224;2023-04-28T03:04:07;12;12;
76679;PMS5003;65597;51.520;-0.224;2023-04-28T03:06:33;14;13;
76679;PMS5003;65597;51.520;-0.224;2023-04-28T03:09:04;11;11;
76679;PMS5003;65597;51.520;-0.224;2023-04-28T03:11:24;14;14;
76679;PMS5003;65597;51.520;-0.224;2023-04-28T03:13:49;10;10;
76679;PMS5003;65597;51.520;-0.224;2023-04-28T03:16:15;14;14;
76679;PMS5003;65597;51.520;-0.224;2023-04-28T03:18:40;11;11;
76679;PMS5003;65597;51.520;-0.224;2023-04-28T03:21:07;9;9;
76679;PMS5003;65597;51.520;-0.224;2023-04-28T03:23:31;10;10;
76679;PMS5003;65597;51.520;-0.224;2023-04-28T03:25:56;9;9;
76679;PMS5003;65597;51.520;-0.224;2023-04-28T03:28:21;11;11;
76679;PMS5003;65597;51.520;-0.224;2023-04-28T03:30:47;9;9;
76679;PMS5003;65597;51.520;-0.224;2023-04-28T03:33:13;7;7;
76679;PMS5003;65597;51.520;-0.224;2023-04-28T03:35:37;9;9;
76679;PMS5003;65597;51.520;-0.224;2023-04-28T03:38:03;10;10;
76679;PMS5003;65597;51.520;-0.224;2023-04-28T03:40:28;12;10;
76679;PMS5003;65597;51.520;-0.224;2023-04-28T03:42:53;8;8;
76679;PMS5003;65597;51.520;-0.224;2023-04-28T03:45:19;9;9;
76679;PMS5003;65597;51.520;-0.224;2023-04-28T03:47:44;10;10;
76679;PMS5003;65597;51.520;-0.224;2023-04-28T03:50:09;8;8;
76679;PMS5003;65597;51.520;-0.224;2023-04-28T03:52:35;6;6;
76679;PMS5003;65597;51.520;-0.224;2023-04-28T03:55:00;7;7;
76679;PMS5003;65597;51.520;-0.224;2023-04-28T03:57:27;6;6;
76679;PMS5003;65597;51.520;-0.224;2023-04-28T03:59:51;6;6;
76679;PMS5003;65597;51.520;-0.224;2023-04-28T04:02:17;6;6;
76679;PMS5003;65597;51.520;-0.224;2023-04-28T04:04:42;4;4;
76679;PMS5003;65597;51.520;-0.224;2023-04-28T04:07:07;6;5;
76679;PMS5003;65597;51.520;-0.224;2023-04-28T04:09:33;4;4;
76679;PMS5003;65597;51.520;-0.224;2023-04-28T04:11:58;5;5;
76679;PMS5003;65597;51.520;-0.224;2023-04-28T04:14:24;6;6;
76679;PMS5003;65597;51.520;-0.224;2023-04-28T04:16:49;4;3;
76679;PMS5003;65597;51.520;-0.224;2023-04-28T04:19:15;3;3;
76679;PMS5003;65597;51.520;-0.224;2023-04-28T04:21:40;4;4;
76679;PMS5003;65597;51.520;-0.224;2023-04-28T04:24:06;3;2;
76679;PMS5003;65597;51.520;-0.224;2023-04-28T04:26:31;2;2;
76679;PMS5003;65597;51.520;-0.224;2023-04-28T04:28:56;2;2;
76679;PMS5003;65597;51.520;-0.224;2023-04-28T04:31:22;2;2;
76679;PMS5003;65597;51.520;-0.224;2023-04-28T04:33:47;2;2;
76679;PMS5003;65597;51.520;-0.224;2023-04-28T04:36:13;3;2;
76679;PMS5003;65597;51.520;-0.224;2023-04-28T04:38:38;1;1;
76679;PMS5003;65597;51.520;-0.224;2023-04-28T04:41:03;0;0;
76679;PMS5003;65597;51.520;-0.224;2023-04-28T04:43:29;0;0;
76679;PMS5003;65597;51.520;-0.224;2023-04-28T04:45:57;1;1;
76679;PMS5003;65597;51.520;-0.224;2023-04-28T04:48:20;3;2;
76679;PMS5003;65597;51.520;-0.224;2023-04-28T04:50:45;2;2;
76679;PMS5003;65597;51.520;-0.224;2023-04-28T04:53:11;1;1;
76679;PMS5003;65597;51.520;-0.224;2023-04-28T04:55:36;3;2;
76679;PMS5003;65597;51.520;-0.224;2023-04-28T04:58:02;1;1;
76679;PMS5003;65597;51.520;-0.224;2023-04-28T05:00:27;1;1;
76679;PMS5003;65597;51.520;-0.224;2023-04-28T05:02:52;3;3;
76679;PMS5003;65597;51.520;-0.224;2023-04-28T05:05:18;3;3;
76679;PMS5003;65597;51.520;-0.224;2023-04-28T05:07:43;3;3;
76679;PMS5003;65597;51.520;-0.224;2023-04-28T05:10:10;3;3;
76679;PMS5003;65597;51.520;-0.224;2023-04-28T05:12:34;3;3;
76679;PMS5003;65597;51.520;-0.224;2023-04-28T05:14:59;4;3;
76679;PMS5003;65597;51.520;-0.224;2023-04-28T05:17:25;2;2;
76679;PMS5003;65597;51.520;-0.224;2023-04-28T05:19:50;3;3;
76679;PMS5003;65597;51.520;-0.224;2023-04-28T05:22:16;3;3;
76679;PMS5003;65597;51.520;-0.224;2023-04-28T05:24:41;3;3;
76679;PMS5003;65597;51.520;-0.224;2023-04-28T05:27:07;3;3;
76679;PMS5003;65597;51.520;-0.224;2023-04-28T05:29:32;1;1;
76679;PMS5003;65597;51.520;-0.224;2023-04-28T05:31:58;2;2;
76679;PMS5003;65597;51.520;-0.224;2023-04-28T05:34:26;2;2;
76679;PMS5003;65597;51.520;-0.224;2023-04-28T05:36:48;4;4;
76679;PMS5003;65597;51.520;-0.224;2023-04-28T05:39:14;2;2;
76679;PMS5003;65597;51.520;-0.224;2023-04-28T05:41:39;4;3;
76679;PMS5003;65597;51.520;-0.224;2023-04-28T05:44:05;1;1;
76679;PMS5003;65597;51.520;-0.224;2023-04-28T05:46:32;3;2;
76679;PMS5003;65597;51.520;-0.224;2023-04-28T05:48:56;4;3;
76679;PMS5003;65597;51.520;-0.224;2023-04-28T05:51:21;4;4;
76679;PMS5003;65597;51.520;-0.224;2023-04-28T05:53:46;2;2;
76679;PMS5003;65597;51.520;-0.224;2023-04-28T05:56:12;3;3;
76679;PMS5003;65597;51.520;-0.224;2023-04-28T05:58:37;2;2;
76679;PMS5003;65597;51.520;-0.224;2023-04-28T06:01:03;3;3;
76679;PMS5003;65597;51.520;-0.224;2023-04-28T06:03:28;4;4;
76679;PMS5003;65597;51.520;-0.224;2023-04-28T06:05:53;2;2;
76679;PMS5003;65597;51.520;-0.224;2023-04-28T06:08:19;3;3;
76679;PMS5003;65597;51.520;-0.224;2023-04-28T06:10:44;5;4;
76679;PMS5003;65597;51.520;-0.224;2023-04-28T06:13:10;3;3;
76679;PMS5003;65597;51.520;-0.224;2023-04-28T06:15:35;4;4;
76679;PMS5003;65597;51.520;-0.224;2023-04-28T06:18:01;2;2;
76679;PMS5003;65597;51.520;-0.224;2023-04-28T06:20:26;3;3;
76679;PMS5003;65597;51.520;-0.224;2023-04-28T06:22:52;4;3;
76679;PMS5003;65597;51.520;-0.224;2023-04-28T06:25:17;2;2;
76679;PMS5003;65597;51.520;-0.224;2023-04-28T06:27:42;4;4;
76679;PMS5003;65597;51.520;-0.224;2023-04-28T06:30:08;4;4;
76679;PMS5003;65597;51.520;-0.224;2023-04-28T06:32:33;4;4;
76679;PMS5003;65597;51.520;-0.224;2023-04-28T06:34:59;3;3;
76679;PMS5003;65597;51.520;-0.224;2023-04-28T06:37:24;4;4;
76679;PMS5003;65597;51.520;-0.224;2023-04-28T06:39:49;3;3;
76679;PMS5003;65597;51.520;-0.224;2023-04-28T06:42:15;5;4;
76679;PMS5003;65597;51.520;-0.224;2023-04-28T06:44:40;4;4;
76679;PMS5003;65597;51.520;-0.224;2023-04-28T06:47:05;4;4;
76679;PMS5003;65597;51.520;-0.224;2023-04-28T06:49:31;4;4;
76679;PMS5003;65597;51.520;-0.224;2023-04-28T06:51:56;5;4;
76679;PMS5003;65597;51.520;-0.224;2023-04-28T06:54:22;5;4;
76679;PMS5003;65597;51.520;-0.224;2023-04-28T06:56:47;4;4;
76679;PMS5003;65597;51.520;-0.224;2023-04-28T06:59:14;3;3;
76679;PMS5003;65597;51.520;-0.224;2023-04-28T07:01:38;4;4;
76679;PMS5003;65597;51.520;-0.224;2023-04-28T07:04:04;4;4;
76679;PMS5003;65597;51.520;-0.224;2023-04-28T07:06:29;4;4;
76679;PMS5003;65597;51.520;-0.224;2023-04-28T07:08:54;4;4;
76679;PMS5003;65597;51.520;-0.224;2023-04-28T07:11:20;4;4;
76679;PMS5003;65597;51.520;-0.224;2023-04-28T07:13:45;5;3;
76679;PMS5003;65597;51.520;-0.224;2023-04-28T07:16:11;3;3;
76679;PMS5003;65597;51.520;-0.224;2023-04-28T07:18:36;3;3;
76679;PMS5003;65597;51.520;-0.224;2023-04-28T07:21:01;2;2;
76679;PMS5003;65597;51.520;-0.224;2023-04-28T07:23:27;4;4;
76679;PMS5003;65597;51.520;-0.224;2023-04-28T07:25:52;2;2;
76679;PMS5003;65597;51.520;-0.224;2023-04-28T07:28:18;4;4;
76679;PMS5003;65597;51.520;-0.224;2023-04-28T07:30:43;6;4;
76679;PMS5003;65597;51.520;-0.224;2023-04-28T07:33:08;4;4;
76679;PMS5003;65597;51.520;-0.224;2023-04-28T07:35:35;5;4;
76679;PMS5003;65597;51.520;-0.224;2023-04-28T07:37:59;5;4;
76679;PMS5003;65597;51.520;-0.224;2023-04-28T07:40:24;4;4;
76679;PMS5003;65597;51.520;-0.224;2023-04-28T07:42:50;5;4;
76679;PMS5003;65597;51.520;-0.224;2023-04-28T07:45:15;5;5;
76679;PMS5003;65597;51.520;-0.224;2023-04-28T07:47:41;3;3;
76679;PMS5003;65597;51.520;-0.224;2023-04-28T07:50:07;3;3;
76679;PMS5003;65597;51.520;-0.224;2023-04-28T07:52:32;4;4;
76679;PMS5003;65597;51.520;-0.224;2023-04-28T07:54:57;4;4;
76679;PMS5003;65597;51.520;-0.224;2023-04-28T07:57:23;2;2;
76679;PMS5003;65597;51.520;-0.224;2023-04-28T07:59:50;3;3;
76679;PMS5003;65597;51.520;-0.224;2023-04-28T08:02:13;3;3;
76679;PMS5003;65597;51.520;-0.224;2023-04-28T08:04:39;5;4;
76679;PMS5003;65597;51.520;-0.224;2023-04-28T08:07:04;2;2;
76679;PMS5003;65597;51.520;-0.224;2023-04-28T08:09:30;1;1;
76679;PMS5003;65597;51.520;-0.224;2023-04-28T08:11:55;1;1;
76679;PMS5003;65597;51.520;-0.224;2023-04-28T08:14:20;3;3;
76679;PMS5003;65597;51.520;-0.224;2023-04-28T08:16:46;3;3;
76679;PMS5003;65597;51.520;-0.224;2023-04-28T08:19:11;3;1;
76679;PMS5003;65597;51.520;-0.224;2023-04-28T08:21:37;1;1;
76679;PMS5003;65597;51.520;-0.224;2023-04-28T08:24:02;2;2;
76679;PMS5003;65597;51.520;-0.224;2023-04-28T08:26:27;3;3;
76679;PMS5003;65597;51.520;-0.224;2023-04-28T08:28:53;2;2;
76679;PMS5003;65597;51.520;-0.224;2023-04-28T08:31:18;3;3;
76679;PMS5003;65597;51.520;-0.224;2023-04-28T08:33:44;2;2;
76679;PMS5003;65597;51.520;-0.224;2023-04-28T08:36:09;2;2;
76679;PMS5003;65597;51.520;-0.224;2023-04-28T08:38:35;1;1;
76679;PMS5003;65597;51.520;-0.224;2023-04-28T08:41:01;1;1;
76679;PMS5003;65597;51.520;-0.224;2023-04-28T08:43:25;1;1;
76679;PMS5003;65597;51.520;-0.224;2023-04-28T08:45:51;1;1;
76679;PMS5003;65597;51.520;-0.224;2023-04-28T08:48:18;1;1;
76679;PMS5003;65597;51.520;-0.224;2023-04-28T08:50:41;1;1;
76679;PMS5003;65597;51.520;-0.224;2023-04-28T08:53:07;2;1;
76679;PMS5003;65597;51.520;-0.224;2023-04-28T08:55:32;1;1;
76679;PMS5003;65597;51.520;-0.224;2023-04-28T08:57:58;1;1;
76679;PMS5003;65597;51.520;-0.224;2023-04-28T09:00:24;0;0;
76679;PMS5003;65597;51.520;-0.224;2023-04-28T09:02:48;1;1;
76679;PMS5003;65597;51.520;-0.224;2023-04-28T09:05:14;0;0;
76679;PMS5003;65597;51.520;-0.224;2023-04-28T09:07:39;0;0;
76679;PMS5003;65597;51.520;-0.224;2023-04-28T09:12:35;2;1;
76679;PMS5003;65597;51.520;-0.224;2023-04-28T09:14:56;0;0;
76679;PMS5003;65597;51.520;-0.224;2023-04-28T09:17:21;1;1;
76679;PMS5003;65597;51.520;-0.224;2023-04-28T09:19:46;1;1;
76679;PMS5003;65597;51.520;-0.224;2023-04-28T09:22:12;0;0;
76679;PMS5003;65597;51.520;-0.224;2023-04-28T09:24:38;0;0;
76679;PMS5003;65597;51.520;-0.224;2023-04-28T09:27:03;0;0;
76679;PMS5003;65597;51.520;-0.224;2023-04-28T09:29:28;0;0;
76679;PMS5003;65597;51.520;-0.224;2023-04-28T09:31:53;1;0;
76679;PMS5003;65597;51.520;-0.224;2023-04-28T09:34:19;0;0;
76679;PMS5003;65597;51.520;-0.224;2023-04-28T09:36:45;0;0;
76679;PMS5003;65597;51.520;-0.224;2023-04-28T09:39:10;0;0;
76679;PMS5003;65597;51.520;-0.224;2023-04-28T09:41:35;0;0;
76679;PMS5003;65597;51.520;-0.224;2023-04-28T09:46:27;0;0;
76679;PMS5003;65597;51.520;-0.224;2023-04-28T09:48:51;0;0;
76679;PMS5003;65597;51.520;-0.224;2023-04-28T09:51:19;0;0;
76679;PMS5003;65597;51.520;-0.224;2023-04-28T09:53:42;0;0;
76679;PMS5003;65597;51.520;-0.224;2023-04-28T09:56:07;0;0;
76679;PMS5003;65597;51.520;-0.224;2023-04-28T09:58:33;0;0;
76679;PMS5003;65597;51.520;-0.224;2023-04-28T10:01:01;0;0;
76679;PMS5003;65597;51.520;-0.224;2023-04-28T10:03:24;0;0;
76679;PMS5003;65597;51.520;-0.224;2023-04-28T10:05:49;1;0;
76679;PMS5003;65597;51.520;-0.224;2023-04-28T10:08:14;1;1;
76679;PMS5003;65597;51.520;-0.224;2023-04-28T10:10:40;1;1;
76679;PMS5003;65597;51.520;-0.224;2023-04-28T10:13:05;2;1;
76679;PMS5003;65597;51.520;-0.224;2023-04-28T10:15:31;1;0;
76679;PMS5003;65597;51.520;-0.224;2023-04-28T10:17:56;0;0;
76679;PMS5003;65597;51.520;-0.224;2023-04-28T10:20:21;0;0;
76679;PMS5003;65597;51.520;-0.224;2023-04-28T10:22:50;0;0;
76679;PMS5003;65597;51.520;-0.224;2023-04-28T10:27:38;1;1;
76679;PMS5003;65597;51.520;-0.224;2023-04-28T10:30:08;1;1;
76679;PMS5003;65597;51.520;-0.224;2023-04-28T10:32:28;1;1;
76679;PMS5003;65597;51.520;-0.224;2023-04-28T10:37:19;2;2;
76679;PMS5003;65597;51.520;-0.224;2023-04-28T10:44:40;1;1;
76679;PMS5003;65597;51.520;-0.224;2023-04-28T10:47:01;1;1;
76679;PMS5003;65597;51.520;-0.224;2023-04-28T10:51:52;1;1;
76679;PMS5003;65597;51.520;-0.224;2023-04-28T10:54:17;2;2;
76679;PMS5003;65597;51.520;-0.224;2023-04-28T11:01:34;1;1;
76679;PMS5003;65597;51.520;-0.224;2023-04-28T11:04:05;3;3;
76679;PMS5003;65597;51.520;-0.224;2023-04-28T11:06:25;2;1;
76679;PMS5003;65597;51.520;-0.224;2023-04-28T11:08:49;1;1;
76679;PMS5003;65597;51.520;-0.224;2023-04-28T11:11:17;2;1;
76679;PMS5003;65597;51.520;-0.224;2023-04-28T11:13:40;3;3;
76679;PMS5003;65597;51.520;-0.224;2023-04-28T11:16:06;4;3;
76679;PMS5003;65597;51.520;-0.224;2023-04-28T11:18:31;2;2;
76679;PMS5003;65597;51.520;-0.224;2023-04-28T11:20:56;2;2;
76679;PMS5003;65597;51.520;-0.224;2023-04-28T11:23:22;2;2;
76679;PMS5003;65597;51.520;-0.224;2023-04-28T11:25:54;3;3;
76679;PMS5003;65597;51.520;-0.224;2023-04-28T11:28:13;3;3;
76679;PMS5003;65597;51.520;-0.224;2023-04-28T11:30:38;1;1;
76679;PMS5003;65597;51.520;-0.224;2023-04-28T11:33:03;2;2;
76679;PMS5003;65597;51.520;-0.224;2023-04-28T11:38:00;2;2;
76679;PMS5003;65597;51.520;-0.224;2023-04-28T11:40:20;3;2;
76679;PMS5003;65597;51.520;-0.224;2023-04-28T11:42:46;3;3;
76679;PMS5003;65597;51.520;-0.224;2023-04-28T11:45:10;3;3;
76679;PMS5003;65597;51.520;-0.224;2023-04-28T11:47:36;3;2;
76679;PMS5003;65597;51.520;-0.224;2023-04-28T11:50:01;3;3;
76679;PMS5003;65597;51.520;-0.224;2023-04-28T11:52:27;3;3;
76679;PMS5003;65597;51.520;-0.224;2023-04-28T11:54:52;2;2;
76679;PMS5003;65597;51.520;-0.224;2023-04-28T11:57:18;3;3;
76679;PMS5003;65597;51.520;-0.224;2023-04-28T11:59:43;1;1;
76679;PMS5003;65597;51.520;-0.224;2023-04-28T12:02:13;3;3;
76679;PMS5003;65597;51.520;-0.224;2023-04-28T12:04:34;3;3;
76679;PMS5003;65597;51.520;-0.224;2023-04-28T12:07:00;4;4;
76679;PMS5003;65597;51.520;-0.224;2023-04-28T12:09:24;2;2;
76679;PMS5003;65597;51.520;-0.224;2023-04-28T12:11:51;4;4;
76679;PMS5003;65597;51.520;-0.224;2023-04-28T12:14:17;2;2;
76679;PMS5003;65597;51.520;-0.224;2023-04-28T12:16:41;3;3;
76679;PMS5003;65597;51.520;-0.224;2023-04-28T12:19:06;4;4;
76679;PMS5003;65597;51.520;-0.224;2023-04-28T12:21:31;5;4;
76679;PMS5003;65597;51.520;-0.224;2023-04-28T12:23:57;2;2;
76679;PMS5003;65597;51.520;-0.224;2023-04-28T12:26:23;5;4;
76679;PMS5003;65597;51.520;-0.224;2023-04-28T12:28:47;4;4;
76679;PMS5003;65597;51.520;-0.224;2023-04-28T12:31:13;3;3;
76679;PMS5003;65597;51.520;-0.224;2023-04-28T12:33:38;4;4;
76679;PMS5003;65597;51.520;-0.224;2023-04-28T12:36:04;3;3;
76679;PMS5003;65597;51.520;-0.224;2023-04-28T12:38:30;3;3;
76679;PMS5003;65597;51.520;-0.224;2023-04-28T12:40:54;4;3;
76679;PMS5003;65597;51.520;-0.224;2023-04-28T12:43:20;3;3;
76679;PMS5003;65597;51.520;-0.224;2023-04-28T12:45:45;4;4;
76679;PMS5003;65597;51.520;-0.224;2023-04-28T12:48:10;4;4;
76679;PMS5003;65597;51.520;-0.224;2023-04-28T12:50:36;3;3;
76679;PMS5003;65597;51.520;-0.224;2023-04-28T12:53:01;2;2;
76679;PMS5003;65597;51.520;-0.224;2023-04-28T12:55:27;5;4;
76679;PMS5003;65597;51.520;-0.224;2023-04-28T12:57:52;3;3;
76679;PMS5003;65597;51.520;-0.224;2023-04-28T13:00:17;3;3;
76679;PMS5003;65597;51.520;-0.224;2023-04-28T13:02:43;2;2;
76679;PMS5003;65597;51.520;-0.224;2023-04-28T13:05:08;1;1;
76679;PMS5003;65597;51.520;-0.224;2023-04-28T13:07:33;2;1;
76679;PMS5003;65597;51.520;-0.224;2023-04-28T13:09:59;2;2;
76679;PMS5003;65597;51.520;-0.224;2023-04-28T13:12:24;0;0;
76679;PMS5003;65597;51.520;-0.224;2023-04-28T13:14:51;2;2;
76679;PMS5003;65597;51.520;-0.224;2023-04-28T13:17:15;1;1;
76679;PMS5003;65597;51.520;-0.224;2023-04-28T13:19:40;2;2;
76679;PMS5003;65597;51.520;-0.224;2023-04-28T13:22:06;2;2;
76679;PMS5003;65597;51.520;-0.224;2023-04-28T13:24:31;2;2;
76679;PMS5003;65597;51.520;-0.224;2023-04-28T13:26:58;1;1;
76679;PMS5003;65597;51.520;-0.224;2023-04-28T13:29:22;1;1;
76679;PMS5003;65597;51.520;-0.224;2023-04-28T13:31:47;0;0;
76679;PMS5003;65597;51.520;-0.224;2023-04-28T13:34:13;4;3;
76679;PMS5003;65597;51.520;-0.224;2023-04-28T13:36:43;2;1;
76679;PMS5003;65597;51.520;-0.224;2023-04-28T13:39:04;1;1;
76679;PMS5003;65597;51.520;-0.224;2023-04-28T13:41:29;1;1;
76679;PMS5003;65597;51.520;-0.224;2023-04-28T13:43:54;3;2;
76679;PMS5003;65597;51.520;-0.224;2023-04-28T13:46:19;1;1;
76679;PMS5003;65597;51.520;-0.224;2023-04-28T13:48:45;3;2;
76679;PMS5003;65597;51.520;-0.224;2023-04-28T13:51:10;4;4;
76679;PMS5003;65597;51.520;-0.224;2023-04-28T13:53:40;3;3;
76679;PMS5003;65597;51.520;-0.224;2023-04-28T13:56:01;3;3;
76679;PMS5003;65597;51.520;-0.224;2023-04-28T13:58:26;2;2;
76679;PMS5003;65597;51.520;-0.224;2023-04-28T14:00:51;3;2;
76679;PMS5003;65597;51.520;-0.224;2023-04-28T14:03:18;1;1;
76679;PMS5003;65597;51.520;-0.224;2023-04-28T14:05:42;2;2;
76679;PMS5003;65597;51.520;-0.224;2023-04-28T14:08:07;3;3;
76679;PMS5003;65597;51.520;-0.224;2023-04-28T14:10:32;4;3;
76679;PMS5003;65597;51.520;-0.224;2023-04-28T14:12:58;2;2;
76679;PMS5003;65597;51.520;-0.224;2023-04-28T14:15:23;2;2;
76679;PMS5003;65597;51.520;-0.224;2023-04-28T14:17:48;3;3;
76679;PMS5003;65597;51.520;-0.224;2023-04-28T14:20:14;4;4;
76679;PMS5003;65597;51.520;-0.224;2023-04-28T14:22:39;2;2;
76679;PMS5003;65597;51.520;-0.224;2023-04-28T14:25:05;3;3;
76679;PMS5003;65597;51.520;-0.224;2023-04-28T14:27:30;4;3;
76679;PMS5003;65597;51.520;-0.224;2023-04-28T14:29:55;3;3;
76679;PMS5003;65597;51.520;-0.224;2023-04-28T14:32:21;4;4;
76679;PMS5003;65597;51.520;-0.224;2023-04-28T14:34:46;3;3;
76679;PMS5003;65597;51.520;-0.224;2023-04-28T14:37:11;5;5;
76679;PMS5003;65597;51.520;-0.224;2023-04-28T14:39:38;4;4;
76679;PMS5003;65597;51.520;-0.224;2023-04-28T14:42:02;3;3;
76679;PMS5003;65597;51.520;-0.224;2023-04-28T14:44:28;4;4;
76679;PMS5003;65597;51.520;-0.224;2023-04-28T14:46:53;4;4;
76679;PMS5003;65597;51.520;-0.224;2023-04-28T14:49:18;4;4;
76679;PMS5003;65597;51.520;-0.224;2023-04-28T14:51:45;1;1;
76679;PMS5003;65597;51.520;-0.224;2023-04-28T14:54:09;4;3;
76679;PMS5003;65597;51.520;-0.224;2023-04-28T14:56:34;4;4;
76679;PMS5003;65597;51.520;-0.224;2023-04-28T14:59:00;4;4;
76679;PMS5003;65597;51.520;-0.224;2023-04-28T15:01:25;4;3;
76679;PMS5003;65597;51.520;-0.224;2023-04-28T15:03:51;11;8;
76679;PMS5003;65597;51.520;-0.224;2023-04-28T15:06:16;5;5;
76679;PMS5003;65597;51.520;-0.224;2023-04-28T15:08:42;3;3;
76679;PMS5003;65597;51.520;-0.224;2023-04-28T15:11:07;4;4;
76679;PMS5003;65597;51.520;-0.224;2023-04-28T15:13:33;5;5;
76679;PMS5003;65597;51.520;-0.224;2023-04-28T15:15:58;5;5;
76679;PMS5003;65597;51.520;-0.224;2023-04-28T15:18:23;4;3;
76679;PMS5003;65597;51.520;-0.224;2023-04-28T15:20:49;4;4;
76679;PMS5003;65597;51.520;-0.224;2023-04-28T15:23:14;5;4;
76679;PMS5003;65597;51.520;-0.224;2023-04-28T15:25:39;5;5;
76679;PMS5003;65597;51.520;-0.224;2023-04-28T15:28:06;3;3;
76679;PMS5003;65597;51.520;-0.224;2023-04-28T15:30:30;6;5;
76679;PMS5003;65597;51.520;-0.224;2023-04-28T15:32:55;5;5;
76679;PMS5003;65597;51.520;-0.224;2023-04-28T15:35:20;4;4;
76679;PMS5003;65597;51.520;-0.224;2023-04-28T15:37:46;4;4;
76679;PMS5003;65597;51.520;-0.224;2023-04-28T15:40:12;5;4;
76679;PMS5003;65597;51.520;-0.224;2023-04-28T15:42:37;4;4;
76679;PMS5003;65597;51.520;-0.224;2023-04-28T15:45:02;5;5;
76679;PMS5003;65597;51.520;-0.224;2023-04-28T15:47:27;4;4;
76679;PMS5003;65597;51.520;-0.224;2023-04-28T15:49:53;6;6;
76679;PMS5003;65597;51.520;-0.224;2023-04-28T15:52:18;3;3;
76679;PMS5003;65597;51.520;-0.224;2023-04-28T15:54:44;5;5;
76679;PMS5003;65597;51.520;-0.224;2023-04-28T15:57:09;5;4;
76679;PMS5003;65597;51.520;-0.224;2023-04-28T15:59:34;4;4;
76679;PMS5003;65597;51.520;-0.224;2023-04-28T16:01:59;5;5;
76679;PMS5003;65597;51.520;-0.224;2023-04-28T16:04:25;4;4;
76679;PMS5003;65597;51.520;-0.224;2023-04-28T16:06:50;4;4;
76679;PMS5003;65597;51.520;-0.224;2023-04-28T16:09:16;6;6;
76679;PMS5003;65597;51.520;-0.224;2023-04-28T16:11:41;5;5;
76679;PMS5003;65597;51.520;-0.224;2023-04-28T16:14:06;7;7;
76679;PMS5003;65597;51.520;-0.224;2023-04-28T16:16:33;7;7;
76679;PMS5003;65597;51.520;-0.224;2023-04-28T16:18:57;8;8;
76679;PMS5003;65597;51.520;-0.224;2023-04-28T16:21:22;8;8;
76679;PMS5003;65597;51.520;-0.224;2023-04-28T16:23:49;9;8;
76679;PMS5003;65597;51.520;-0.224;2023-04-28T16:26:13;8;7;
76679;PMS5003;65597;51.520;-0.224;2023-04-28T16:28:39;7;6;
76679;PMS5003;65597;51.520;-0.224;2023-04-28T16:31:04;7;7;
76679;PMS5003;65597;51.520;-0.224;2023-04-28T16:33:29;8;7;
76679;PMS5003;65597;51.520;-0.224;2023-04-28T16:35:55;7;7;